Sound Reliance — WXAE — position and weather

sailwx.info

Track history (hours):
 
Tides and Currents Weather Stations Pressure Air Temp Water Temp Dewpoint Dewpoint Depression Visibility Wind Speed Wind Dir Waves Ship Positions

Sound Reliance

Owner: Intrepid Ship Management, Seattle, WA. More information available from US FCC via Universal Licensing System and Coast Guard Vessel Documentation Center.

Last reported at 2018-Jun-25 13:23 UTC. Time now 2018-Jun-25 19:41 UTC.
Position N 48°31' W 124°58'.

Type: Ship. MMSI: 338085216.

Date/timePositionNaut miles runAvg speedWind from/ knotsBaromVisibWave heightAir tempDewpointWater temp
2018-Jun-25 13:23N 48°31' W 124°58'512.7
2018-Jun-25 13:00N 48°31' W 124°51'612.7
2018-Jun-25 12:29N 48°30' W 124°41'713.4
2018-Jun-25 12:00N 48°28' W 124°32'613.1
2018-Jun-25 11:30N 48°25' W 124°23'8110.6
2018-Jun-25 03:51N 47°56' W 122°30'411.6
2018-Jun-25 03:30N 47°52' W 122°28'611.5
2018-Jun-25 03:00N 47°46' W 122°26'611.5
2018-Jun-25 02:31N 47°41' W 122°27'510.0
2018-Jun-25 01:59N 47°36' W 122°25'3 6.4
2018-Jun-25 01:30N 47°33' W 122°26'611.7
2018-Jun-25 01:00N 47°27' W 122°24'7 9.9
2018-Jun-25 00:20N 47°20' W 122°25'3 0.2
2018-Jun-24 07:33N 47°17' W 122°27'0 4.6
2018-Jun-24 07:28N 47°18' W 122°27'3 6.5
2018-Jun-24 07:00N 47°21' W 122°26'4 7.9
2018-Jun-24 06:30N 47°23' W 122°22'4 8.1
2018-Jun-24 06:00N 47°27' W 122°25'4 8.1
2018-Jun-24 05:30N 47°31' W 122°27'4 7.6
2018-Jun-24 05:00N 47°34' W 122°27'2 4.9
2018-Jun-24 04:30N 47°37' W 122°25'510.2
2018-Jun-24 04:00N 47°41' W 122°28'611.6
2018-Jun-24 03:30N 47°47' W 122°27'611.6
2018-Jun-24 03:00N 47°53' W 122°29'37 9.8
2018-Jun-23 23:17N 48°28' W 122°45'510.6
2018-Jun-23 22:51N 48°32' W 122°45'410.2
2018-Jun-23 22:30N 48°36' W 122°45'6 0.2
2018-Jun-22 12:37N 48°41' W 122°43'211.3
2018-Jun-22 12:29N 48°40' W 122°41'5 0.4
2018-Jun-22 01:01N 48°35' W 122°40'210.7
2018-Jun-22 00:52N 48°34' W 122°40'66 6.1
2018-Jun-21 13:53N 48°20' W 124°18'410.7
2018-Jun-21 13:31N 48°22' W 124°23'510.6
2018-Jun-21 13:01N 48°24' W 124°31'510.7
2018-Jun-21 12:31N 48°26' W 124°38'510.3
2018-Jun-21 12:00N 48°28' W 124°45'99 9.8
2018-Jun-21 01:49N 46°49' W 124°53'511.4
2018-Jun-21 01:22N 46°44' W 124°51'512.1
2018-Jun-21 00:59N 46°40' W 124°48'511.1
2018-Jun-21 00:30N 46°35' W 124°46'811.0
2018-Jun-20 23:46N 46°27' W 124°42'511.6
2018-Jun-20 23:19N 46°22' W 124°39'510.8
2018-Jun-20 22:49N 46°18' W 124°35'511.3
2018-Jun-20 22:22N 46°15' W 124°28'511.4
2018-Jun-20 21:57N 46°13' W 124°23'511.0
2018-Jun-20 21:28N 46°11' W 124°15'715.9
2018-Jun-20 21:00N 46°15' W 124°06'610.4
2018-Jun-20 20:27N 46°13' W 123°58'611.7
2018-Jun-20 19:58N 46°12' W 123°50'712.1
2018-Jun-20 19:22N 46°15' W 123°41'515.1
2018-Jun-20 19:00N 46°16' W 123°33'6 9.7
2018-Jun-20 18:24N 46°13' W 123°25'510.6
2018-Jun-20 17:56N 46°09' W 123°21'914.9
2018-Jun-20 17:20N 46°11' W 123°09'3 8.3
2018-Jun-20 16:58N 46°10' W 123°05'712.4
2018-Jun-20 16:24N 46°06' W 122°57'611.4
2018-Jun-20 15:56N 46°01' W 122°52'612.1
2018-Jun-20 15:23N 45°56' W 122°48'613.2
2018-Jun-20 14:57N 45°50' W 122°48'612.6
2018-Jun-20 14:26N 45°44' W 122°46'511.9
2018-Jun-20 14:00N 45°38' W 122°47'4 7.8
2018-Jun-20 13:30N 45°35' W 122°45'1 1.6
2018-Jun-20 12:57N 45°34' W 122°44'0 0.0
2018-Jun-20 12:24N 45°34' W 122°44'0 0.0
2018-Jun-20 11:59N 45°34' W 122°44'0 0.0
2018-Jun-20 10:20N 45°34' W 122°44'0 0.0
2018-Jun-20 09:56N 45°34' W 122°44'0 0.0
2018-Jun-20 09:23N 45°34' W 122°44'0 0.0
2018-Jun-20 08:50N 45°34' W 122°44'0 0.1
2018-Jun-20 08:20N 45°34' W 122°44'0 0.1
2018-Jun-20 07:53N 45°34' W 122°44'0 0.1
2018-Jun-20 07:26N 45°34' W 122°44'0 0.0
2018-Jun-20 06:59N 45°34' W 122°44'0 0.0
2018-Jun-20 05:35N 45°34' W 122°44'0 0.0
2018-Jun-20 05:17N 45°34' W 122°44'0 0.1
2018-Jun-20 04:59N 45°34' W 122°44'0 0.1
2018-Jun-20 04:29N 45°34' W 122°44'0 0.1
2018-Jun-20 03:59N 45°34' W 122°44'0 0.0
2018-Jun-20 02:53N 45°34' W 122°44'0 0.0
2018-Jun-20 02:26N 45°34' W 122°44'0 0.1
2018-Jun-20 01:59N 45°34' W 122°44'0 0.0
2018-Jun-20 01:29N 45°34' W 122°44'0 0.0
2018-Jun-20 00:47N 45°34' W 122°44'0 0.0
2018-Jun-20 00:11N 45°34' W 122°44'0 0.0
2018-Jun-19 23:56N 45°34' W 122°44'0 0.0
2018-Jun-19 23:26N 45°34' W 122°44'0 0.0
2018-Jun-19 22:56N 45°34' W 122°44'0 0.1
2018-Jun-19 22:23N 45°34' W 122°44'0 0.0
2018-Jun-19 21:59N 45°34' W 122°44'0 0.0
2018-Jun-19 21:08N 45°34' W 122°44'0 0.0
2018-Jun-19 20:53N 45°34' W 122°44'0 0.0
2018-Jun-19 20:26N 45°34' W 122°44'0 0.0
2018-Jun-19 19:53N 45°34' W 122°44'0 0.1
2018-Jun-19 19:29N 45°34' W 122°44'0 0.1
2018-Jun-19 18:59N 45°34' W 122°44'0 0.0
2018-Jun-19 18:17N 45°34' W 122°44'0 0.0
2018-Jun-19 17:44N 45°34' W 122°44'0 0.0
2018-Jun-19 17:26N 45°34' W 122°44'0 0.0
2018-Jun-19 16:56N 45°34' W 122°44'0 0.0
2018-Jun-19 16:05N 45°34' W 122°44'0 0.0
2018-Jun-19 15:59N 45°34' W 122°44'0 0.0
2018-Jun-19 15:05N 45°34' W 122°44'0 0.0
2018-Jun-19 14:59N 45°34' W 122°44'0 0.0
2018-Jun-19 13:38N 45°34' W 122°44'0 0.0
2018-Jun-19 13:17N 45°34' W 122°44'0 0.0
2018-Jun-19 12:53N 45°34' W 122°44'0 0.0
2018-Jun-19 12:23N 45°34' W 122°44'0 0.0
2018-Jun-19 11:59N 45°34' W 122°44'0 0.0
2018-Jun-19 11:26N 45°34' W 122°44'0 0.0
2018-Jun-19 10:59N 45°34' W 122°44'0 0.0
2018-Jun-19 10:29N 45°34' W 122°44'0 0.1
2018-Jun-19 09:56N 45°34' W 122°44'0 0.0
2018-Jun-19 09:26N 45°34' W 122°44'0 0.0
2018-Jun-19 08:53N 45°34' W 122°44'0 0.0
2018-Jun-19 08:29N 45°34' W 122°44'0 0.1
2018-Jun-19 07:53N 45°34' W 122°44'0 0.1
2018-Jun-19 07:26N 45°34' W 122°44'0 0.1
2018-Jun-19 06:59N 45°34' W 122°44'0 0.1
2018-Jun-19 06:31N 45°34' W 122°44'1 2.1
2018-Jun-19 06:00N 45°35' W 122°45'4 7.6
2018-Jun-19 05:30N 45°38' W 122°47'5 9.8
2018-Jun-19 05:01N 45°43' W 122°46'510.3
2018-Jun-19 04:30N 45°48' W 122°48'510.1
2018-Jun-19 04:00N 45°53' W 122°48'510.5
2018-Jun-19 03:30N 45°58' W 122°50'510.6
2018-Jun-19 03:00N 46°03' W 122°53'510.6
2018-Jun-19 02:30N 46°07' W 122°59'511.0
2018-Jun-19 02:00N 46°10' W 123°05'510.2
2018-Jun-19 01:31N 46°11' W 123°12'611.1
2018-Jun-19 01:00N 46°08' W 123°20'510.1
2018-Jun-19 00:30N 46°12' W 123°26'510.3
2018-Jun-19 00:00N 46°16' W 123°29'611.9
2018-Jun-18 23:31N 46°16' W 123°37'612.3
2018-Jun-18 23:01N 46°13' W 123°46'5 9.9
2018-Jun-18 22:31N 46°12' W 123°52'612.5
2018-Jun-18 22:00N 46°15' W 124°00'611.3
2018-Jun-18 21:31N 46°14' W 124°08'611.1
2018-Jun-18 21:00N 46°11' W 124°16'4 8.4
2018-Jun-18 20:31N 46°12' W 124°22'4 8.1
2018-Jun-18 20:01N 46°15' W 124°26'5 9.8
2018-Jun-18 19:31N 46°17' W 124°32'611.9
2018-Jun-18 19:00N 46°22' W 124°37'5 9.6
2018-Jun-18 18:31N 46°26' W 124°41'611.8
2018-Jun-18 18:00N 46°32' W 124°44'2716.6
2018-Jun-18 18:00N 46°30' W 124°42'1015.6 140 / 151014.0 5.4 16.7
2018-Jun-18 17:21N 46°39' W 124°48'412.0
2018-Jun-18 17:00N 46°43' W 124°50'611.6
2018-Jun-18 16:31N 46°48' W 124°54'611.9
2018-Jun-18 16:01N 46°54' W 124°57'611.9
2018-Jun-18 15:30N 46°59' W 125°00'611.8
2018-Jun-18 15:00N 47°05' W 125°03'1011.7
2018-Jun-18 14:11N 47°14' W 125°07'311.7
2018-Jun-18 13:56N 47°17' W 125°08'511.6
2018-Jun-18 13:30N 47°22' W 125°10'612.0
2018-Jun-18 13:00N 47°27' W 125°13'711.9
2018-Jun-18 12:25N 47°34' W 125°17'511.5
2018-Jun-18 12:00N 47°38' W 125°19'1011.6
2018-Jun-18 11:05N 47°49' W 125°20'212.1
2018-Jun-18 10:56N 47°51' W 125°20'511.9
2018-Jun-18 10:30N 47°56' W 125°20'611.7
2018-Jun-18 10:00N 48°02' W 125°19'1711.6
2018-Jun-18 08:33N 48°18' W 125°11'112.4
2018-Jun-18 08:26N 48°19' W 125°11'912.2
2018-Jun-18 07:44N 48°27' W 125°05'311.9
2018-Jun-18 07:30N 48°29' W 125°03'611.3
2018-Jun-18 06:59N 48°31' W 124°55'612.6
2018-Jun-18 06:30N 48°31' W 124°45'612.0
2018-Jun-18 06:00N 48°29' W 124°37'612.3
2018-Jun-18 05:30N 48°27' W 124°28'611.7
2018-Jun-18 05:00N 48°25' W 124°20'611.4
2018-Jun-18 04:28N 48°22' W 124°12'53 9.0
2018-Jun-17 22:34N 48°23' W 122°52'612.8
2018-Jun-17 22:07N 48°27' W 122°46'413.1
2018-Jun-17 21:50N 48°31' W 122°44'513.3
2018-Jun-17 21:28N 48°35' W 122°45'2 0.1
2018-Jun-17 04:01N 48°37' W 122°45'313.8
2018-Jun-17 03:49N 48°34' W 122°45'39 8.7
2018-Jun-16 23:17N 47°56' W 122°31'3 9.9
2018-Jun-16 23:00N 47°54' W 122°28'611.2
2018-Jun-16 22:30N 47°48' W 122°27'611.3
2018-Jun-16 22:00N 47°43' W 122°27'610.5
2018-Jun-16 21:27N 47°37' W 122°24'3 6.6
2018-Jun-16 21:00N 47°35' W 122°21'0 0.0
2018-Jun-16 20:30N 47°35' W 122°21'0 0.0
2018-Jun-16 17:43N 47°35' W 122°21'0 0.0
2018-Jun-16 17:28N 47°35' W 122°21'0 0.0
2018-Jun-16 16:58N 47°35' W 122°21'0 0.0
2018-Jun-16 16:22N 47°35' W 122°21'0 0.0
2018-Jun-16 15:58N 47°35' W 122°21'0 0.0
2018-Jun-16 15:25N 47°35' W 122°21'0 0.0
2018-Jun-16 14:58N 47°35' W 122°21'0 0.0
2018-Jun-16 14:28N 47°35' W 122°21'0 0.0
2018-Jun-16 13:58N 47°35' W 122°21'0 0.0
2018-Jun-16 13:28N 47°35' W 122°21'0 0.0
2018-Jun-16 12:58N 47°35' W 122°21'0 0.0
2018-Jun-16 12:28N 47°35' W 122°21'0 0.0
2018-Jun-16 11:58N 47°35' W 122°21'0 0.0
2018-Jun-16 11:28N 47°35' W 122°21'0 0.0
2018-Jun-16 10:58N 47°35' W 122°21'0 0.0
2018-Jun-16 10:28N 47°35' W 122°21'0 0.0
2018-Jun-16 09:58N 47°35' W 122°21'0 0.0
2018-Jun-16 09:28N 47°35' W 122°21'0 0.0
2018-Jun-16 08:58N 47°35' W 122°21'0 1.0
2018-Jun-16 08:30N 47°36' W 122°21'0 0.1
2018-Jun-16 08:00N 47°36' W 122°21'1 1.4
2018-Jun-16 07:28N 47°36' W 122°22'0 0.2
2018-Jun-16 06:58N 47°36' W 122°22'0 0.1
2018-Jun-16 06:28N 47°36' W 122°22'0 0.1
2018-Jun-16 05:58N 47°36' W 122°22'0 0.1
2018-Jun-16 05:25N 47°36' W 122°22'0 0.1
2018-Jun-16 04:58N 47°36' W 122°22'0 0.0
2018-Jun-16 04:28N 47°36' W 122°22'0 0.1
2018-Jun-16 03:55N 47°36' W 122°22'0 0.2
2018-Jun-16 03:28N 47°36' W 122°22'0 0.1
2018-Jun-16 02:55N 47°36' W 122°22'0 0.0
2018-Jun-16 02:25N 47°36' W 122°22'0 0.1
2018-Jun-16 01:58N 47°36' W 122°22'0 0.0
2018-Jun-16 01:25N 47°36' W 122°22'0 0.1
2018-Jun-16 00:28N 47°36' W 122°22'0 0.0
2018-Jun-15 21:58N 47°36' W 122°22'0 0.1
2018-Jun-15 21:28N 47°36' W 122°22'0 0.1
2018-Jun-15 20:58N 47°36' W 122°22'0 0.2
2018-Jun-15 20:28N 47°36' W 122°22'0 0.0
2018-Jun-15 19:58N 47°36' W 122°22'0 0.0
2018-Jun-15 19:28N 47°36' W 122°22'0 0.0
2018-Jun-15 18:58N 47°36' W 122°22'0 0.0
2018-Jun-15 18:28N 47°36' W 122°22'0 0.0
2018-Jun-15 17:55N 47°36' W 122°22'0 0.0
2018-Jun-15 17:28N 47°36' W 122°22'0 0.2
2018-Jun-15 16:55N 47°36' W 122°22'0 0.1
2018-Jun-15 16:22N 47°36' W 122°22'0 0.1
2018-Jun-15 15:55N 47°36' W 122°22'0 0.1
2018-Jun-15 15:28N 47°36' W 122°22'0 0.0
2018-Jun-15 14:49N 47°36' W 122°22'0 0.1
2018-Jun-15 14:25N 47°36' W 122°22'0 0.0
2018-Jun-15 13:58N 47°36' W 122°22'0 0.0
2018-Jun-15 13:28N 47°36' W 122°22'  
Track history (hours):
 
Tides and Currents Weather Stations Pressure Air Temp Water Temp Dewpoint Dewpoint Depression Visibility Wind Speed Wind Dir Waves Ship Positions

Sound Reliance

Owner: Intrepid Ship Management, Seattle, WA. More information available from US FCC via Universal Licensing System and Coast Guard Vessel Documentation Center.

Last reported at 2018-Jun-25 13:23 UTC. Time now 2018-Jun-25 19:41 UTC.
Position N 48°31' W 124°58'.

Type: Ship. MMSI: 338085216.

Date/timePositionNaut miles runAvg speedWind from/ knotsBaromVisibWave heightAir tempDewpointWater temp
2018-Jun-25 13:23N 48°31' W 124°58'512.7
2018-Jun-25 13:00N 48°31' W 124°51'612.7
2018-Jun-25 12:29N 48°30' W 124°41'713.4
2018-Jun-25 12:00N 48°28' W 124°32'613.1
2018-Jun-25 11:30N 48°25' W 124°23'8110.6
2018-Jun-25 03:51N 47°56' W 122°30'411.6
2018-Jun-25 03:30N 47°52' W 122°28'611.5
2018-Jun-25 03:00N 47°46' W 122°26'611.5
2018-Jun-25 02:31N 47°41' W 122°27'510.0
2018-Jun-25 01:59N 47°36' W 122°25'3 6.4
2018-Jun-25 01:30N 47°33' W 122°26'611.7
2018-Jun-25 01:00N 47°27' W 122°24'7 9.9
2018-Jun-25 00:20N 47°20' W 122°25'3 0.2
2018-Jun-24 07:33N 47°17' W 122°27'0 4.6
2018-Jun-24 07:28N 47°18' W 122°27'3 6.5
2018-Jun-24 07:00N 47°21' W 122°26'4 7.9
2018-Jun-24 06:30N 47°23' W 122°22'4 8.1
2018-Jun-24 06:00N 47°27' W 122°25'4 8.1
2018-Jun-24 05:30N 47°31' W 122°27'4 7.6
2018-Jun-24 05:00N 47°34' W 122°27'2 4.9
2018-Jun-24 04:30N 47°37' W 122°25'510.2
2018-Jun-24 04:00N 47°41' W 122°28'611.6
2018-Jun-24 03:30N 47°47' W 122°27'611.6
2018-Jun-24 03:00N 47°53' W 122°29'37 9.8
2018-Jun-23 23:17N 48°28' W 122°45'510.6
2018-Jun-23 22:51N 48°32' W 122°45'410.2
2018-Jun-23 22:30N 48°36' W 122°45'6 0.2
2018-Jun-22 12:37N 48°41' W 122°43'211.3
2018-Jun-22 12:29N 48°40' W 122°41'5 0.4
2018-Jun-22 01:01N 48°35' W 122°40'210.7
2018-Jun-22 00:52N 48°34' W 122°40'66 6.1
2018-Jun-21 13:53N 48°20' W 124°18'410.7
2018-Jun-21 13:31N 48°22' W 124°23'510.6
2018-Jun-21 13:01N 48°24' W 124°31'510.7
2018-Jun-21 12:31N 48°26' W 124°38'510.3
2018-Jun-21 12:00N 48°28' W 124°45'99 9.8
2018-Jun-21 01:49N 46°49' W 124°53'511.4
2018-Jun-21 01:22N 46°44' W 124°51'512.1
2018-Jun-21 00:59N 46°40' W 124°48'511.1
2018-Jun-21 00:30N 46°35' W 124°46'811.0
2018-Jun-20 23:46N 46°27' W 124°42'511.6
2018-Jun-20 23:19N 46°22' W 124°39'510.8
2018-Jun-20 22:49N 46°18' W 124°35'511.3
2018-Jun-20 22:22N 46°15' W 124°28'511.4
2018-Jun-20 21:57N 46°13' W 124°23'511.0
2018-Jun-20 21:28N 46°11' W 124°15'715.9
2018-Jun-20 21:00N 46°15' W 124°06'610.4
2018-Jun-20 20:27N 46°13' W 123°58'611.7
2018-Jun-20 19:58N 46°12' W 123°50'712.1
2018-Jun-20 19:22N 46°15' W 123°41'515.1
2018-Jun-20 19:00N 46°16' W 123°33'6 9.7
2018-Jun-20 18:24N 46°13' W 123°25'510.6
2018-Jun-20 17:56N 46°09' W 123°21'914.9
2018-Jun-20 17:20N 46°11' W 123°09'3 8.3
2018-Jun-20 16:58N 46°10' W 123°05'712.4
2018-Jun-20 16:24N 46°06' W 122°57'611.4
2018-Jun-20 15:56N 46°01' W 122°52'612.1
2018-Jun-20 15:23N 45°56' W 122°48'613.2
2018-Jun-20 14:57N 45°50' W 122°48'612.6
2018-Jun-20 14:26N 45°44' W 122°46'511.9
2018-Jun-20 14:00N 45°38' W 122°47'4 7.8
2018-Jun-20 13:30N 45°35' W 122°45'1 1.6
2018-Jun-20 12:57N 45°34' W 122°44'0 0.0
2018-Jun-20 12:24N 45°34' W 122°44'0 0.0
2018-Jun-20 11:59N 45°34' W 122°44'0 0.0
2018-Jun-20 10:20N 45°34' W 122°44'0 0.0
2018-Jun-20 09:56N 45°34' W 122°44'0 0.0
2018-Jun-20 09:23N 45°34' W 122°44'0 0.0
2018-Jun-20 08:50N 45°34' W 122°44'0 0.1
2018-Jun-20 08:20N 45°34' W 122°44'0 0.1
2018-Jun-20 07:53N 45°34' W 122°44'0 0.1
2018-Jun-20 07:26N 45°34' W 122°44'0 0.0
2018-Jun-20 06:59N 45°34' W 122°44'0 0.0
2018-Jun-20 05:35N 45°34' W 122°44'0 0.0
2018-Jun-20 05:17N 45°34' W 122°44'0 0.1
2018-Jun-20 04:59N 45°34' W 122°44'0 0.1
2018-Jun-20 04:29N 45°34' W 122°44'0 0.1
2018-Jun-20 03:59N 45°34' W 122°44'0 0.0
2018-Jun-20 02:53N 45°34' W 122°44'0 0.0
2018-Jun-20 02:26N 45°34' W 122°44'0 0.1
2018-Jun-20 01:59N 45°34' W 122°44'0 0.0
2018-Jun-20 01:29N 45°34' W 122°44'0 0.0
2018-Jun-20 00:47N 45°34' W 122°44'0 0.0
2018-Jun-20 00:11N 45°34' W 122°44'0 0.0
2018-Jun-19 23:56N 45°34' W 122°44'0 0.0
2018-Jun-19 23:26N 45°34' W 122°44'0 0.0
2018-Jun-19 22:56N 45°34' W 122°44'0 0.1
2018-Jun-19 22:23N 45°34' W 122°44'0 0.0
2018-Jun-19 21:59N 45°34' W 122°44'0 0.0
2018-Jun-19 21:08N 45°34' W 122°44'0 0.0
2018-Jun-19 20:53N 45°34' W 122°44'0 0.0
2018-Jun-19 20:26N 45°34' W 122°44'0 0.0
2018-Jun-19 19:53N 45°34' W 122°44'0 0.1
2018-Jun-19 19:29N 45°34' W 122°44'0 0.1
2018-Jun-19 18:59N 45°34' W 122°44'0 0.0
2018-Jun-19 18:17N 45°34' W 122°44'0 0.0
2018-Jun-19 17:44N 45°34' W 122°44'0 0.0
2018-Jun-19 17:26N 45°34' W 122°44'0 0.0
2018-Jun-19 16:56N 45°34' W 122°44'0 0.0
2018-Jun-19 16:05N 45°34' W 122°44'0 0.0
2018-Jun-19 15:59N 45°34' W 122°44'0 0.0
2018-Jun-19 15:05N 45°34' W 122°44'0 0.0
2018-Jun-19 14:59N 45°34' W 122°44'0 0.0
2018-Jun-19 13:38N 45°34' W 122°44'0 0.0
2018-Jun-19 13:17N 45°34' W 122°44'0 0.0
2018-Jun-19 12:53N 45°34' W 122°44'0 0.0
2018-Jun-19 12:23N 45°34' W 122°44'0 0.0
2018-Jun-19 11:59N 45°34' W 122°44'0 0.0
2018-Jun-19 11:26N 45°34' W 122°44'0 0.0
2018-Jun-19 10:59N 45°34' W 122°44'0 0.0
2018-Jun-19 10:29N 45°34' W 122°44'0 0.1
2018-Jun-19 09:56N 45°34' W 122°44'0 0.0
2018-Jun-19 09:26N 45°34' W 122°44'0 0.0
2018-Jun-19 08:53N 45°34' W 122°44'0 0.0
2018-Jun-19 08:29N 45°34' W 122°44'0 0.1
2018-Jun-19 07:53N 45°34' W 122°44'0 0.1
2018-Jun-19 07:26N 45°34' W 122°44'0 0.1
2018-Jun-19 06:59N 45°34' W 122°44'0 0.1
2018-Jun-19 06:31N 45°34' W 122°44'1 2.1
2018-Jun-19 06:00N 45°35' W 122°45'4 7.6
2018-Jun-19 05:30N 45°38' W 122°47'5 9.8
2018-Jun-19 05:01N 45°43' W 122°46'510.3
2018-Jun-19 04:30N 45°48' W 122°48'510.1
2018-Jun-19 04:00N 45°53' W 122°48'510.5
2018-Jun-19 03:30N 45°58' W 122°50'510.6
2018-Jun-19 03:00N 46°03' W 122°53'510.6
2018-Jun-19 02:30N 46°07' W 122°59'511.0
2018-Jun-19 02:00N 46°10' W 123°05'510.2
2018-Jun-19 01:31N 46°11' W 123°12'611.1
2018-Jun-19 01:00N 46°08' W 123°20'510.1
2018-Jun-19 00:30N 46°12' W 123°26'510.3
2018-Jun-19 00:00N 46°16' W 123°29'611.9
2018-Jun-18 23:31N 46°16' W 123°37'612.3
2018-Jun-18 23:01N 46°13' W 123°46'5 9.9
2018-Jun-18 22:31N 46°12' W 123°52'612.5
2018-Jun-18 22:00N 46°15' W 124°00'611.3
2018-Jun-18 21:31N 46°14' W 124°08'611.1
2018-Jun-18 21:00N 46°11' W 124°16'4 8.4
2018-Jun-18 20:31N 46°12' W 124°22'4 8.1
2018-Jun-18 20:01N 46°15' W 124°26'5 9.8
2018-Jun-18 19:31N 46°17' W 124°32'611.9
2018-Jun-18 19:00N 46°22' W 124°37'5 9.6
2018-Jun-18 18:31N 46°26' W 124°41'611.8
2018-Jun-18 18:00N 46°32' W 124°44'2716.6
2018-Jun-18 18:00N 46°30' W 124°42'1015.6 140 / 151014.0 5.4 16.7
2018-Jun-18 17:21N 46°39' W 124°48'412.0
2018-Jun-18 17:00N 46°43' W 124°50'611.6
2018-Jun-18 16:31N 46°48' W 124°54'611.9
2018-Jun-18 16:01N 46°54' W 124°57'611.9
2018-Jun-18 15:30N 46°59' W 125°00'611.8
2018-Jun-18 15:00N 47°05' W 125°03'1011.7
2018-Jun-18 14:11N 47°14' W 125°07'311.7
2018-Jun-18 13:56N 47°17' W 125°08'511.6
2018-Jun-18 13:30N 47°22' W 125°10'612.0
2018-Jun-18 13:00N 47°27' W 125°13'711.9
2018-Jun-18 12:25N 47°34' W 125°17'511.5
2018-Jun-18 12:00N 47°38' W 125°19'1011.6
2018-Jun-18 11:05N 47°49' W 125°20'212.1
2018-Jun-18 10:56N 47°51' W 125°20'511.9
2018-Jun-18 10:30N 47°56' W 125°20'611.7
2018-Jun-18 10:00N 48°02' W 125°19'1711.6
2018-Jun-18 08:33N 48°18' W 125°11'112.4
2018-Jun-18 08:26N 48°19' W 125°11'912.2
2018-Jun-18 07:44N 48°27' W 125°05'311.9
2018-Jun-18 07:30N 48°29' W 125°03'611.3
2018-Jun-18 06:59N 48°31' W 124°55'612.6
2018-Jun-18 06:30N 48°31' W 124°45'612.0
2018-Jun-18 06:00N 48°29' W 124°37'612.3
2018-Jun-18 05:30N 48°27' W 124°28'611.7
2018-Jun-18 05:00N 48°25' W 124°20'611.4
2018-Jun-18 04:28N 48°22' W 124°12'53 9.0
2018-Jun-17 22:34N 48°23' W 122°52'612.8
2018-Jun-17 22:07N 48°27' W 122°46'413.1
2018-Jun-17 21:50N 48°31' W 122°44'513.3
2018-Jun-17 21:28N 48°35' W 122°45'2 0.1
2018-Jun-17 04:01N 48°37' W 122°45'313.8
2018-Jun-17 03:49N 48°34' W 122°45'39 8.7
2018-Jun-16 23:17N 47°56' W 122°31'3 9.9
2018-Jun-16 23:00N 47°54' W 122°28'611.2
2018-Jun-16 22:30N 47°48' W 122°27'611.3
2018-Jun-16 22:00N 47°43' W 122°27'610.5
2018-Jun-16 21:27N 47°37' W 122°24'3 6.6
2018-Jun-16 21:00N 47°35' W 122°21'0 0.0
2018-Jun-16 20:30N 47°35' W 122°21'0 0.0
2018-Jun-16 17:43N 47°35' W 122°21'0 0.0
2018-Jun-16 17:28N 47°35' W 122°21'0 0.0
2018-Jun-16 16:58N 47°35' W 122°21'0 0.0
2018-Jun-16 16:22N 47°35' W 122°21'0 0.0
2018-Jun-16 15:58N 47°35' W 122°21'0 0.0
2018-Jun-16 15:25N 47°35' W 122°21'0 0.0
2018-Jun-16 14:58N 47°35' W 122°21'0 0.0
2018-Jun-16 14:28N 47°35' W 122°21'0 0.0
2018-Jun-16 13:58N 47°35' W 122°21'0 0.0
2018-Jun-16 13:28N 47°35' W 122°21'0 0.0
2018-Jun-16 12:58N 47°35' W 122°21'0 0.0
2018-Jun-16 12:28N 47°35' W 122°21'0 0.0
2018-Jun-16 11:58N 47°35' W 122°21'0 0.0
2018-Jun-16 11:28N 47°35' W 122°21'0 0.0
2018-Jun-16 10:58N 47°35' W 122°21'0 0.0
2018-Jun-16 10:28N 47°35' W 122°21'0 0.0
2018-Jun-16 09:58N 47°35' W 122°21'0 0.0
2018-Jun-16 09:28N 47°35' W 122°21'0 0.0
2018-Jun-16 08:58N 47°35' W 122°21'0 1.0
2018-Jun-16 08:30N 47°36' W 122°21'0 0.1
2018-Jun-16 08:00N 47°36' W 122°21'1 1.4
2018-Jun-16 07:28N 47°36' W 122°22'0 0.2
2018-Jun-16 06:58N 47°36' W 122°22'0 0.1
2018-Jun-16 06:28N 47°36' W 122°22'0 0.1
2018-Jun-16 05:58N 47°36' W 122°22'0 0.1
2018-Jun-16 05:25N 47°36' W 122°22'0 0.1
2018-Jun-16 04:58N 47°36' W 122°22'0 0.0
2018-Jun-16 04:28N 47°36' W 122°22'0 0.1
2018-Jun-16 03:55N 47°36' W 122°22'0 0.2
2018-Jun-16 03:28N 47°36' W 122°22'0 0.1
2018-Jun-16 02:55N 47°36' W 122°22'0 0.0
2018-Jun-16 02:25N 47°36' W 122°22'0 0.1
2018-Jun-16 01:58N 47°36' W 122°22'0 0.0
2018-Jun-16 01:25N 47°36' W 122°22'0 0.1
2018-Jun-16 00:28N 47°36' W 122°22'0 0.0
2018-Jun-15 21:58N 47°36' W 122°22'0 0.1
2018-Jun-15 21:28N 47°36' W 122°22'0 0.1
2018-Jun-15 20:58N 47°36' W 122°22'0 0.2
2018-Jun-15 20:28N 47°36' W 122°22'0 0.0
2018-Jun-15 19:58N 47°36' W 122°22'0 0.0
2018-Jun-15 19:28N 47°36' W 122°22'0 0.0
2018-Jun-15 18:58N 47°36' W 122°22'0 0.0
2018-Jun-15 18:28N 47°36' W 122°22'0 0.0
2018-Jun-15 17:55N 47°36' W 122°22'0 0.0
2018-Jun-15 17:28N 47°36' W 122°22'0 0.2
2018-Jun-15 16:55N 47°36' W 122°22'0 0.1
2018-Jun-15 16:22N 47°36' W 122°22'0 0.1
2018-Jun-15 15:55N 47°36' W 122°22'0 0.1
2018-Jun-15 15:28N 47°36' W 122°22'0 0.0
2018-Jun-15 14:49N 47°36' W 122°22'0 0.1
2018-Jun-15 14:25N 47°36' W 122°22'0 0.0
2018-Jun-15 13:58N 47°36' W 122°22'0 0.0
2018-Jun-15 13:28N 47°36' W 122°22'  

Dump ship's entire track history